createdAt,value
2019-03-26T00:00:36.395Z,24.80
2019-03-26T00:03:04.973Z,28.60
2019-03-26T00:05:33.533Z,29.40
2019-03-26T00:08:02.109Z,29.37
2019-03-26T00:10:30.676Z,27.82
2019-03-26T00:12:59.314Z,30.02
2019-03-26T00:15:28.480Z,36.10
2019-03-26T00:17:57.037Z,31.02
2019-03-26T00:20:25.613Z,32.17
2019-03-26T00:22:54.168Z,36.28
2019-03-26T00:25:22.744Z,38.48
2019-03-26T00:27:51.307Z,38.95
2019-03-26T00:30:19.876Z,29.60
2019-03-26T00:32:48.442Z,37.00
2019-03-26T00:35:17.088Z,39.50
2019-03-26T00:37:45.646Z,39.67
2019-03-26T00:40:14.364Z,42.15
2019-03-26T00:42:42.921Z,34.40
2019-03-26T00:45:11.734Z,43.68
2019-03-26T00:47:40.289Z,43.50
2019-03-26T00:50:09.009Z,50.40
2019-03-26T00:52:37.561Z,52.58
2019-03-26T00:55:07.386Z,55.98
2019-03-26T00:57:35.945Z,66.00
2019-03-26T01:00:06.435Z,67.35
2019-03-26T01:02:34.984Z,63.55
2019-03-26T01:05:04.642Z,63.63
2019-03-26T01:07:33.533Z,66.77
2019-03-26T01:10:02.114Z,69.12
2019-03-26T01:12:31.335Z,67.53
2019-03-26T01:15:00.053Z,64.97
2019-03-26T01:17:28.818Z,62.62
2019-03-26T01:19:57.395Z,65.42
2019-03-26T01:22:25.956Z,74.58
2019-03-26T01:24:54.537Z,66.42
2019-03-26T01:27:23.103Z,66.15
2019-03-26T01:29:51.684Z,82.17
2019-03-26T01:32:20.232Z,79.53
2019-03-26T01:34:48.814Z,67.95
2019-03-26T01:37:17.370Z,71.82
2019-03-26T01:39:45.954Z,62.40
2019-03-26T01:42:14.514Z,63.05
2019-03-26T01:44:43.089Z,60.80
2019-03-26T01:47:11.645Z,64.35
2019-03-26T01:49:40.228Z,63.63
2019-03-26T01:52:08.782Z,59.25
2019-03-26T01:54:37.367Z,70.42
2019-03-26T01:57:05.936Z,76.50
2019-03-26T01:59:34.511Z,75.85
2019-03-26T02:02:03.066Z,68.78
2019-03-26T02:04:31.653Z,61.58
2019-03-26T02:07:00.215Z,65.45
2019-03-26T02:09:28.795Z,52.25
2019-03-26T02:11:57.539Z,55.55
2019-03-26T02:14:26.097Z,56.90
2019-03-26T02:16:54.661Z,49.08
2019-03-26T02:19:23.232Z,46.63
2019-03-26T02:21:51.801Z,48.85
2019-03-26T02:24:20.374Z,42.38
2019-03-26T02:26:48.930Z,43.28
2019-03-26T02:29:17.524Z,42.05
2019-03-26T02:31:46.082Z,35.15
2019-03-26T02:34:14.663Z,38.80
2019-03-26T02:36:43.597Z,32.35
2019-03-26T02:39:12.166Z,35.88
2019-03-26T02:41:40.731Z,33.33
2019-03-26T02:44:09.286Z,36.58
2019-03-26T02:46:37.864Z,28.15
2019-03-26T02:49:06.498Z,32.50
2019-03-26T02:51:35.074Z,33.53
2019-03-26T02:54:03.636Z,29.55
2019-03-26T02:56:32.218Z,30.12
2019-03-26T02:59:00.782Z,29.50
2019-03-26T03:01:29.358Z,32.88
2019-03-26T03:03:57.917Z,32.38
2019-03-26T03:06:26.498Z,31.52
2019-03-26T03:08:55.051Z,31.02
2019-03-26T03:11:23.636Z,35.58
2019-03-26T03:13:52.199Z,34.00
2019-03-26T03:16:20.770Z,30.70
2019-03-26T03:18:49.325Z,28.95
2019-03-26T03:21:17.912Z,34.20
2019-03-26T03:23:46.469Z,26.68
2019-03-26T03:26:15.043Z,27.35
2019-03-26T03:28:43.605Z,30.10
2019-03-26T03:31:12.189Z,27.13
2019-03-26T03:33:40.763Z,29.40
2019-03-26T03:36:09.336Z,28.75
2019-03-26T03:38:41.163Z,25.15
2019-03-26T03:41:08.181Z,30.23
2019-03-26T03:43:36.734Z,36.10
2019-03-26T03:46:05.399Z,37.50
2019-03-26T03:48:34.383Z,29.77
2019-03-26T03:51:04.501Z,35.00
2019-03-26T03:53:33.489Z,36.35
2019-03-26T03:56:02.432Z,31.85
2019-03-26T03:58:33.696Z,29.82
2019-03-26T04:01:02.270Z,33.40
2019-03-26T04:03:30.841Z,31.75
2019-03-26T04:06:08.793Z,36.80
2019-03-26T04:08:29.619Z,34.48
2019-03-26T04:10:58.197Z,34.58
2019-03-26T04:13:26.764Z,38.98
2019-03-26T04:15:55.338Z,36.23
2019-03-26T04:18:23.906Z,44.25
2019-03-26T04:20:52.485Z,39.65
2019-03-26T04:23:21.037Z,40.67
2019-03-26T04:25:49.623Z,35.83
2019-03-26T04:28:18.185Z,42.95
2019-03-26T04:30:46.771Z,36.13
2019-03-26T04:33:15.327Z,38.92
2019-03-26T04:35:43.896Z,35.65
2019-03-26T04:38:12.462Z,37.67
2019-03-26T04:40:41.046Z,31.02
2019-03-26T04:43:09.678Z,35.43
2019-03-26T04:45:38.277Z,37.50
2019-03-26T04:48:06.814Z,38.70
2019-03-26T04:50:35.393Z,39.05
2019-03-26T04:53:03.955Z,37.45
2019-03-26T04:55:32.521Z,43.58
2019-03-26T04:58:01.079Z,43.87
2019-03-26T05:00:29.656Z,38.70
2019-03-26T05:02:58.213Z,42.13
2019-03-26T05:05:26.792Z,43.30
2019-03-26T05:07:55.354Z,45.65
2019-03-26T05:10:23.923Z,45.75
2019-03-26T05:12:52.486Z,40.08
2019-03-26T05:15:21.049Z,45.63
2019-03-26T05:17:49.628Z,43.17
2019-03-26T05:20:18.190Z,45.20
2019-03-26T05:22:46.772Z,43.98
2019-03-26T05:25:15.457Z,39.40
2019-03-26T05:27:45.645Z,43.90
2019-03-26T05:30:15.285Z,51.37
2019-03-26T05:32:44.334Z,47.83
2019-03-26T05:35:12.953Z,43.60
2019-03-26T05:37:41.529Z,43.63
2019-03-26T05:40:10.624Z,45.25
2019-03-26T05:42:39.210Z,43.23
2019-03-26T05:45:08.963Z,42.88
2019-03-26T05:47:37.537Z,38.42
2019-03-26T05:50:08.238Z,48.08
2019-03-26T05:52:37.578Z,35.38
2019-03-26T05:55:09.469Z,47.13
2019-03-26T05:57:38.041Z,38.90
2019-03-26T06:00:13.317Z,38.58
2019-03-26T06:02:41.894Z,36.58
2019-03-26T06:05:10.526Z,34.70
2019-03-26T06:07:39.102Z,42.67
2019-03-26T06:10:09.401Z,36.42
2019-03-26T06:12:38.037Z,38.45
2019-03-26T06:15:08.233Z,38.60
2019-03-26T06:17:36.949Z,43.95
2019-03-26T06:20:07.654Z,39.88
2019-03-26T06:22:36.245Z,43.45
2019-03-26T06:25:06.726Z,37.30
2019-03-26T06:27:35.302Z,37.70
2019-03-26T06:30:05.697Z,41.13
2019-03-26T06:32:34.245Z,32.75
2019-03-26T06:35:03.174Z,41.13
2019-03-26T06:37:31.746Z,31.10
2019-03-26T06:40:00.358Z,32.93
2019-03-26T06:42:28.881Z,38.35
2019-03-26T06:44:57.439Z,31.55
2019-03-26T06:47:26.022Z,30.75
2019-03-26T06:49:54.577Z,26.45
2019-03-26T06:52:23.155Z,27.58
2019-03-26T06:54:51.992Z,30.82
2019-03-26T06:57:20.694Z,30.90
2019-03-26T06:59:49.246Z,29.25
2019-03-26T07:02:17.899Z,31.25
2019-03-26T07:04:49.508Z,37.23
2019-03-26T07:07:30.491Z,44.25
2019-03-26T07:09:48.293Z,38.65
2019-03-26T07:12:16.869Z,39.23
2019-03-26T07:14:45.416Z,28.85
2019-03-26T07:17:13.991Z,38.28
2019-03-26T07:19:42.549Z,33.05
2019-03-26T07:22:11.135Z,32.98
2019-03-26T07:24:39.693Z,33.58
2019-03-26T07:27:08.307Z,45.23
2019-03-26T07:29:36.896Z,39.78
2019-03-26T07:32:05.473Z,39.58
2019-03-26T07:34:34.038Z,35.65
2019-03-26T07:37:02.607Z,39.67
2019-03-26T07:39:31.165Z,41.73
2019-03-26T07:41:59.755Z,36.10
2019-03-26T07:44:28.305Z,36.73
2019-03-26T07:46:56.881Z,40.95
2019-03-26T07:49:25.456Z,42.08
2019-03-26T07:51:54.013Z,36.60
2019-03-26T07:54:22.575Z,39.00
2019-03-26T07:56:51.148Z,31.00
2019-03-26T07:59:19.910Z,37.05
2019-03-26T08:01:48.498Z,36.68
2019-03-26T08:04:17.059Z,35.35
2019-03-26T08:06:45.613Z,28.30
2019-03-26T08:09:14.222Z,41.35
2019-03-26T08:11:42.745Z,37.93
2019-03-26T08:14:11.355Z,30.85
2019-03-26T08:16:39.894Z,31.73
2019-03-26T08:19:08.469Z,29.02
2019-03-26T08:21:37.034Z,32.48
2019-03-26T08:24:05.621Z,27.52
2019-03-26T08:26:34.172Z,27.55
2019-03-26T08:29:02.759Z,31.15
2019-03-26T08:31:31.312Z,31.17
2019-03-26T08:33:59.887Z,30.40
2019-03-26T08:36:28.440Z,30.10
2019-03-26T08:38:57.021Z,28.35
2019-03-26T08:41:25.586Z,28.80
2019-03-26T08:43:54.172Z,29.50
2019-03-26T08:46:22.730Z,27.75
2019-03-26T08:48:51.311Z,26.15
2019-03-26T08:51:19.865Z,27.42
2019-03-26T08:53:48.441Z,22.22
2019-03-26T08:56:17.007Z,22.10
2019-03-26T08:58:45.594Z,29.05
2019-03-26T09:01:14.141Z,26.02
2019-03-26T09:03:42.793Z,27.45
2019-03-26T09:06:11.345Z,26.90
2019-03-26T09:08:39.920Z,27.87
2019-03-26T09:11:08.485Z,21.93
2019-03-26T09:13:37.066Z,32.05
2019-03-26T09:16:05.629Z,20.85
2019-03-26T09:18:34.214Z,26.62
2019-03-26T09:21:02.776Z,26.20
2019-03-26T09:23:31.349Z,25.95
2019-03-26T09:25:59.909Z,18.42
2019-03-26T09:28:28.483Z,23.57
2019-03-26T09:30:57.033Z,20.72
2019-03-26T09:33:25.609Z,21.70
2019-03-26T09:35:54.185Z,19.50
2019-03-26T09:38:22.751Z,18.15
2019-03-26T09:40:51.317Z,18.60
2019-03-26T09:43:19.936Z,20.70
2019-03-26T09:45:48.509Z,15.48
2019-03-26T09:48:17.463Z,17.67
2019-03-26T09:50:46.021Z,16.90
2019-03-26T09:53:14.598Z,19.95
2019-03-26T09:55:43.157Z,23.85
2019-03-26T09:58:11.733Z,16.57
2019-03-26T10:00:40.326Z,18.85
2019-03-26T10:03:08.948Z,18.85
2019-03-26T10:05:37.524Z,25.55
2019-03-26T10:08:06.078Z,17.77
2019-03-26T10:10:34.648Z,18.57
2019-03-26T10:13:03.208Z,15.25
2019-03-26T10:15:31.791Z,20.60
2019-03-26T10:18:00.337Z,14.40
2019-03-26T10:20:28.913Z,13.28
2019-03-26T10:22:57.465Z,20.15
2019-03-26T10:25:26.047Z,18.23
2019-03-26T10:27:54.606Z,17.25
2019-03-26T10:30:34.185Z,21.35
2019-03-26T10:33:03.112Z,18.42
2019-03-26T10:35:31.772Z,19.80
2019-03-26T10:38:00.244Z,14.78
2019-03-26T10:40:36.638Z,22.30
2019-03-26T10:43:05.845Z,15.65
2019-03-26T10:45:34.434Z,17.80
2019-03-26T10:48:03.053Z,16.85
2019-03-26T10:50:31.687Z,19.23
2019-03-26T10:53:00.181Z,17.73
2019-03-26T10:55:28.757Z,13.45
2019-03-26T10:57:57.304Z,12.47
2019-03-26T11:00:26.154Z,12.50
2019-03-26T11:02:54.886Z,12.60
2019-03-26T11:05:23.465Z,14.73
2019-03-26T11:07:52.016Z,5.62
2019-03-26T11:10:20.666Z,9.90
2019-03-26T11:12:49.218Z,7.03
2019-03-26T11:15:17.932Z,8.88
2019-03-26T11:17:46.494Z,13.30
2019-03-26T11:20:15.506Z,14.78
2019-03-26T11:22:44.060Z,14.07
2019-03-26T11:25:12.976Z,13.50
2019-03-26T11:27:41.529Z,12.23
2019-03-26T11:30:10.646Z,12.13
2019-03-26T11:32:39.200Z,13.95
2019-03-26T11:35:09.010Z,17.27
2019-03-26T11:37:38.610Z,14.90
2019-03-26T11:40:11.635Z,12.55
2019-03-26T11:42:40.186Z,14.10
2019-03-26T11:45:09.802Z,13.80
2019-03-26T11:47:39.650Z,15.35
2019-03-26T11:50:10.377Z,18.70
2019-03-26T11:52:39.973Z,14.58
2019-03-26T11:55:10.585Z,10.65
2019-03-26T11:57:39.135Z,23.15
2019-03-26T12:00:14.422Z,12.23
2019-03-26T12:02:42.982Z,11.95
2019-03-26T12:05:12.193Z,11.25
2019-03-26T12:07:42.924Z,20.97
2019-03-26T12:10:11.413Z,9.25
2019-03-26T12:12:39.966Z,13.22
2019-03-26T12:15:10.782Z,9.73
2019-03-26T12:17:39.341Z,10.63
2019-03-26T12:20:09.666Z,8.65
2019-03-26T12:22:38.214Z,7.37
2019-03-26T12:25:07.226Z,7.62
2019-03-26T12:27:36.756Z,7.28
2019-03-26T12:30:09.458Z,7.30
2019-03-26T12:32:40.656Z,12.33
2019-03-26T12:35:10.142Z,10.48
2019-03-26T12:37:38.695Z,9.65
2019-03-26T12:40:07.805Z,5.75
2019-03-26T12:42:36.357Z,5.60
2019-03-26T12:45:07.156Z,6.78
2019-03-26T12:47:35.822Z,6.58
2019-03-26T12:50:07.041Z,6.72
2019-03-26T12:52:35.601Z,18.73
2019-03-26T12:55:05.308Z,11.93
2019-03-26T12:57:33.860Z,17.55
2019-03-26T13:00:02.446Z,15.25
2019-03-26T13:02:31.021Z,14.18
2019-03-26T13:04:59.572Z,8.98
2019-03-26T13:07:28.154Z,5.83
2019-03-26T13:09:56.709Z,13.20
2019-03-26T13:12:25.290Z,9.08
2019-03-26T13:14:53.841Z,9.13
2019-03-26T13:17:22.417Z,12.23
2019-03-26T13:19:50.978Z,10.75
2019-03-26T13:22:19.545Z,8.63
2019-03-26T13:24:48.120Z,13.53
2019-03-26T13:27:16.693Z,11.83
2019-03-26T13:29:45.258Z,19.48
2019-03-26T13:32:13.834Z,20.68
2019-03-26T13:34:42.390Z,18.42
2019-03-26T13:37:10.957Z,9.65
2019-03-26T13:39:39.586Z,11.18
2019-03-26T13:42:08.166Z,11.30
2019-03-26T13:44:36.718Z,7.22
2019-03-26T13:47:05.290Z,9.38
2019-03-26T13:49:33.854Z,15.45
2019-03-26T13:52:02.438Z,11.48
2019-03-26T13:54:30.984Z,9.70
2019-03-26T13:56:59.571Z,11.53
2019-03-26T13:59:28.117Z,6.90
2019-03-26T14:01:56.694Z,12.93
2019-03-26T14:04:25.250Z,6.42
2019-03-26T14:06:53.821Z,10.45
2019-03-26T14:09:22.452Z,15.32
2019-03-26T14:11:51.021Z,6.87
2019-03-26T14:14:19.583Z,10.48
2019-03-26T14:16:48.152Z,4.95
2019-03-26T14:19:16.708Z,9.35
2019-03-26T14:21:45.286Z,11.45
2019-03-26T14:24:13.835Z,7.12
2019-03-26T14:26:42.472Z,7.67
2019-03-26T14:29:11.026Z,7.22
2019-03-26T14:31:39.603Z,15.03
2019-03-26T14:34:08.153Z,12.03
2019-03-26T14:36:36.735Z,19.65
2019-03-26T14:39:08.366Z,10.40
2019-03-26T14:41:36.937Z,12.45
2019-03-26T14:44:05.491Z,13.55
2019-03-26T14:46:34.061Z,8.05
2019-03-26T14:49:02.622Z,10.30
2019-03-26T14:51:31.257Z,7.25
2019-03-26T14:53:59.814Z,12.05
2019-03-26T14:56:28.385Z,27.52
2019-03-26T14:58:56.940Z,20.48
2019-03-26T15:01:25.513Z,13.03
2019-03-26T15:03:54.064Z,11.25
2019-03-26T15:06:22.638Z,9.73
2019-03-26T15:08:51.192Z,11.68
2019-03-26T15:11:19.770Z,9.58
2019-03-26T15:13:49.590Z,14.25
2019-03-26T15:16:18.413Z,13.80
2019-03-26T15:18:46.965Z,10.45
2019-03-26T15:21:15.537Z,15.65
2019-03-26T15:23:44.174Z,17.75
2019-03-26T15:26:12.764Z,9.93
2019-03-26T15:28:41.318Z,15.90
2019-03-26T15:31:09.865Z,7.30
2019-03-26T15:33:38.436Z,5.47
2019-03-26T15:36:06.991Z,13.15
2019-03-26T15:38:35.566Z,10.00
2019-03-26T15:41:04.194Z,8.15
2019-03-26T15:43:32.773Z,15.98
2019-03-26T15:46:01.335Z,14.33
2019-03-26T15:48:29.914Z,12.23
2019-03-26T15:50:58.464Z,13.32
2019-03-26T15:53:27.042Z,12.93
2019-03-26T15:55:55.607Z,12.55
2019-03-26T15:58:24.185Z,16.48
2019-03-26T16:00:52.736Z,20.68
2019-03-26T16:03:22.577Z,12.20
2019-03-26T16:05:51.346Z,16.52
2019-03-26T16:08:19.920Z,11.78
2019-03-26T16:10:48.485Z,14.73
2019-03-26T16:13:17.054Z,6.33
2019-03-26T16:15:45.612Z,7.10
2019-03-26T16:18:14.186Z,13.30
2019-03-26T16:20:42.740Z,11.75
2019-03-26T16:23:11.323Z,15.72
2019-03-26T16:25:39.878Z,15.20
2019-03-26T16:28:08.484Z,13.35
2019-03-26T16:30:37.041Z,11.25
2019-03-26T16:33:05.624Z,13.15
2019-03-26T16:35:34.168Z,10.53
2019-03-26T16:38:02.754Z,19.90
2019-03-26T16:40:31.311Z,12.73
2019-03-26T16:42:59.885Z,20.08
2019-03-26T16:45:28.444Z,12.65
2019-03-26T16:47:57.018Z,8.60
2019-03-26T16:50:25.573Z,13.32
2019-03-26T16:52:54.150Z,14.55
2019-03-26T16:55:22.710Z,12.58
2019-03-26T16:57:51.289Z,19.37
2019-03-26T17:00:22.913Z,9.45
2019-03-26T17:02:51.494Z,19.65
2019-03-26T17:05:23.121Z,10.98
2019-03-26T17:07:51.693Z,13.88
2019-03-26T17:10:20.244Z,14.55
2019-03-26T17:12:48.817Z,9.00
2019-03-26T17:15:17.436Z,16.32
2019-03-26T17:17:46.018Z,13.98
2019-03-26T17:20:14.648Z,13.10
2019-03-26T17:22:43.232Z,15.03
2019-03-26T17:25:11.871Z,9.13
2019-03-26T17:27:40.439Z,10.28
2019-03-26T17:30:09.535Z,9.73
2019-03-26T17:32:38.196Z,13.83
2019-03-26T17:35:07.201Z,13.22
2019-03-26T17:37:35.780Z,10.55
2019-03-26T17:40:05.274Z,9.33
2019-03-26T17:42:33.889Z,19.37
2019-03-26T17:45:02.402Z,13.75
2019-03-26T17:47:30.977Z,13.62
2019-03-26T17:49:59.603Z,13.62
2019-03-26T17:52:28.177Z,21.50
2019-03-26T17:54:56.744Z,10.82
2019-03-26T17:57:25.309Z,11.80
2019-03-26T17:59:53.866Z,17.52
2019-03-26T18:02:22.417Z,25.68
2019-03-26T18:04:51.469Z,13.80
2019-03-26T18:07:20.030Z,11.15
2019-03-26T18:09:48.615Z,11.35
2019-03-26T18:12:29.967Z,8.13
2019-03-26T18:14:47.426Z,12.00
2019-03-26T18:17:15.978Z,11.38
2019-03-26T18:19:44.558Z,11.12
2019-03-26T18:22:13.108Z,12.40
2019-03-26T18:24:41.690Z,12.53
2019-03-26T18:27:10.241Z,14.47
2019-03-26T18:29:38.818Z,19.55
2019-03-26T18:32:07.378Z,20.23
2019-03-26T18:34:35.949Z,12.13
2019-03-26T18:37:04.514Z,17.77
2019-03-26T18:39:33.084Z,18.00
2019-03-26T18:42:01.647Z,15.08
2019-03-26T18:44:30.222Z,9.88
2019-03-26T18:46:58.773Z,21.45
2019-03-26T18:49:27.353Z,14.10
2019-03-26T18:51:55.905Z,21.80
2019-03-26T18:54:24.480Z,25.97
2019-03-26T18:56:53.043Z,19.27
2019-03-26T18:59:21.618Z,14.18
2019-03-26T19:01:50.549Z,22.45
2019-03-26T19:04:19.383Z,17.20
2019-03-26T19:06:48.228Z,20.85
2019-03-26T19:09:17.106Z,21.23
2019-03-26T19:11:45.640Z,21.35
2019-03-26T19:14:15.157Z,15.30
2019-03-26T19:16:43.724Z,25.88
2019-03-26T19:19:12.300Z,30.25
2019-03-26T19:21:40.849Z,15.58
2019-03-26T19:24:09.425Z,28.38
2019-03-26T19:26:37.980Z,28.25
2019-03-26T19:29:06.570Z,46.15
2019-03-26T19:31:35.122Z,33.98
2019-03-26T19:34:03.709Z,30.88
2019-03-26T19:36:32.269Z,27.25
2019-03-26T19:39:00.845Z,29.05
2019-03-26T19:41:29.405Z,30.55
2019-03-26T19:43:57.989Z,31.77
2019-03-26T19:46:26.550Z,38.90
2019-03-26T19:48:55.125Z,34.65
2019-03-26T19:51:23.689Z,34.43
2019-03-26T19:53:52.265Z,30.92
2019-03-26T19:56:20.817Z,37.63
2019-03-26T19:58:49.397Z,48.83
2019-03-26T20:01:17.959Z,39.75
2019-03-26T20:03:46.529Z,48.28
2019-03-26T20:06:15.097Z,41.37
2019-03-26T20:08:43.689Z,42.58
2019-03-26T20:11:15.136Z,64.40
2019-03-26T20:13:42.473Z,58.83
2019-03-26T20:16:11.038Z,50.28
2019-03-26T20:18:39.613Z,49.85
2019-03-26T20:21:08.169Z,49.45
2019-03-26T20:23:36.751Z,42.75
2019-03-26T20:26:05.305Z,51.18
2019-03-26T20:28:33.888Z,40.25
2019-03-26T20:31:02.437Z,40.63
2019-03-26T20:33:31.003Z,48.33
2019-03-26T20:35:59.585Z,35.23
2019-03-26T20:38:28.146Z,45.00
2019-03-26T20:40:56.734Z,43.52
2019-03-26T20:43:36.757Z,37.53
2019-03-26T20:45:55.510Z,40.55
2019-03-26T20:48:24.077Z,46.50
2019-03-26T20:50:52.658Z,33.73
2019-03-26T20:53:21.219Z,32.53
2019-03-26T20:55:54.498Z,33.28
2019-03-26T20:58:20.132Z,35.05
2019-03-26T21:00:48.715Z,24.30
2019-03-26T21:03:17.274Z,30.27
2019-03-26T21:05:45.846Z,27.27
2019-03-26T21:08:14.401Z,25.65
2019-03-26T21:10:43.055Z,27.50
2019-03-26T21:13:11.604Z,31.30
2019-03-26T21:15:42.618Z,33.95
2019-03-26T21:18:10.405Z,28.80
2019-03-26T21:20:38.981Z,30.12
2019-03-26T21:23:07.538Z,32.33
2019-03-26T21:25:36.251Z,42.55
2019-03-26T21:28:05.017Z,34.75
2019-03-26T21:30:33.592Z,32.65
2019-03-26T21:33:02.150Z,38.53
2019-03-26T21:35:30.722Z,36.38
2019-03-26T21:37:59.276Z,41.40
2019-03-26T21:40:27.855Z,34.48
2019-03-26T21:42:56.489Z,34.48
2019-03-26T21:45:33.273Z,37.30
2019-03-26T21:48:02.677Z,51.00
2019-03-26T21:50:31.258Z,39.10
2019-03-26T21:53:00.086Z,39.23
2019-03-26T21:55:28.658Z,34.30
2019-03-26T21:57:57.215Z,47.43
2019-03-26T22:00:25.797Z,38.85
2019-03-26T22:02:54.340Z,40.12
2019-03-26T22:05:22.917Z,41.53
2019-03-26T22:07:51.472Z,47.90
2019-03-26T22:10:20.130Z,45.15
2019-03-26T22:12:48.686Z,41.83
2019-03-26T22:15:17.396Z,40.75
2019-03-26T22:17:45.953Z,51.45
2019-03-26T22:20:14.877Z,41.83
2019-03-26T22:22:43.436Z,40.45
2019-03-26T22:25:12.473Z,45.83
2019-03-26T22:27:41.038Z,42.45
2019-03-26T22:30:11.051Z,44.03
2019-03-26T22:32:39.610Z,47.98
2019-03-26T22:35:09.829Z,42.27
2019-03-26T22:37:38.389Z,46.15
2019-03-26T22:40:08.201Z,44.53
2019-03-26T22:42:36.837Z,44.53
2019-03-26T22:45:08.127Z,45.28
2019-03-26T22:47:38.430Z,49.10
2019-03-26T22:50:09.143Z,53.50
2019-03-26T22:52:37.774Z,54.03
2019-03-26T22:55:10.505Z,52.20
2019-03-26T22:57:39.179Z,51.90
2019-03-26T23:00:19.387Z,48.78
2019-03-26T23:02:47.955Z,48.20
2019-03-26T23:05:17.573Z,59.33
2019-03-26T23:07:46.133Z,64.92
2019-03-26T23:10:15.751Z,55.50
2019-03-26T23:12:44.303Z,55.05
2019-03-26T23:15:18.777Z,52.48
2019-03-26T23:17:47.397Z,48.20
2019-03-26T23:20:16.040Z,51.45
2019-03-26T23:22:44.593Z,52.55
2019-03-26T23:25:13.614Z,48.20
2019-03-26T23:27:42.173Z,63.42
2019-03-26T23:30:11.490Z,67.50
2019-03-26T23:32:40.049Z,80.97
2019-03-26T23:35:08.773Z,64.82
2019-03-26T23:37:37.335Z,61.88
2019-03-26T23:40:06.264Z,61.00
2019-03-26T23:42:34.831Z,63.17
2019-03-26T23:45:04.562Z,55.00
2019-03-26T23:47:33.145Z,51.92
2019-03-26T23:50:01.770Z,55.40
2019-03-26T23:52:30.350Z,50.73
2019-03-26T23:54:58.916Z,48.23
2019-03-26T23:57:27.489Z,54.13
2019-03-26T23:59:56.040Z,51.10
